Time;durP1;ratioP1;P1;durP2;ratioP2;P2;SDS_P1;SDS_P2;PMS_P1;PMS_P2;Temp;Humidity;BMP_temperature;BMP_pressure;BME280_temperature;BME280_humidity;BME280_pressure;Samples;Min_cycle;Max_cycle;Signal;HPM_P1;HPM_P2
2022/04/10 00:01:31;;;;;;;5.17;3.60;;;4.80;99.90;;;;;;5069597;28;20478;-35
2022/04/10 00:03:56;;;;;;;5.20;3.73;;;5.00;99.90;;;;;;5049851;28;20416;-40
2022/04/10 00:06:23;;;;;;;6.03;3.77;;;5.10;99.90;;;;;;5060863;28;20433;-39
2022/04/10 00:08:49;;;;;;;5.83;3.53;;;4.90;99.90;;;;;;5050634;28;20198;-39
2022/04/10 00:11:15;;;;;;;8.87;3.90;;;5.00;99.90;;;;;;5050885;28;20439;-40
2022/04/10 00:13:41;;;;;;;5.87;3.80;;;5.10;99.90;;;;;;5058820;28;20958;-40
2022/04/10 00:16:08;;;;;;;7.00;4.07;;;5.00;99.90;;;;;;5066990;28;20205;-38
2022/04/10 00:18:37;;;;;;;8.60;4.20;;;4.80;99.90;;;;;;5050387;28;20248;-37
2022/04/10 00:21:04;;;;;;;5.00;4.03;;;4.80;99.90;;;;;;5055733;28;20459;-40
2022/04/10 00:23:30;;;;;;;9.50;3.93;;;4.90;99.90;;;;;;5053521;28;20427;-38
2022/04/10 00:25:56;;;;;;;5.50;4.60;;;4.80;99.90;;;;;;5050987;28;20923;-38
2022/04/10 00:28:21;;;;;;;8.60;3.60;;;4.80;99.90;;;;;;5059847;28;20450;-37
2022/04/10 00:30:47;;;;;;;8.50;4.27;;;4.80;99.90;;;;;;5062157;28;20193;-37
2022/04/10 00:33:13;;;;;;;8.23;5.10;;;4.80;99.90;;;;;;5050344;28;20201;-41
2022/04/10 00:35:39;;;;;;;7.77;4.67;;;4.90;99.90;;;;;;5052204;28;20193;-34
2022/04/10 00:38:06;;;;;;;8.13;4.43;;;5.00;99.90;;;;;;5050310;28;20300;-39
2022/04/10 00:40:32;;;;;;;5.23;4.53;;;5.10;99.90;;;;;;5049404;28;20216;-40
2022/04/10 00:42:58;;;;;;;7.53;4.30;;;5.00;99.90;;;;;;5058021;28;20434;-36
2022/04/10 00:45:23;;;;;;;7.80;4.40;;;5.00;99.90;;;;;;5070936;28;20194;-37
2022/04/10 00:47:49;;;;;;;7.20;4.33;;;5.00;99.90;;;;;;5050302;28;20198;-38
2022/04/10 00:50:17;;;;;;;5.93;4.17;;;5.00;99.90;;;;;;5052401;28;20930;-37
2022/04/10 00:52:44;;;;;;;5.73;4.37;;;4.80;99.90;;;;;;5056661;28;20464;-38
2022/04/10 00:55:09;;;;;;;7.57;4.27;;;4.70;99.90;;;;;;5055543;28;20428;-38
2022/04/10 00:57:35;;;;;;;7.60;4.50;;;4.90;99.90;;;;;;5062046;28;20487;-36
2022/04/10 01:00:02;;;;;;;7.50;4.40;;;4.90;99.90;;;;;;5059425;28;20426;-35
2022/04/10 01:02:28;;;;;;;7.67;4.37;;;4.90;99.90;;;;;;5060266;28;20194;-34
2022/04/10 01:04:54;;;;;;;4.83;4.00;;;5.00;99.90;;;;;;5049016;28;20420;-41
2022/04/10 01:07:20;;;;;;;7.80;4.27;;;4.90;99.90;;;;;;5056706;28;20217;-39
2022/04/10 01:09:46;;;;;;;8.80;4.47;;;4.90;99.90;;;;;;5049052;28;20428;-37
2022/04/10 01:12:12;;;;;;;7.27;4.87;;;4.90;99.90;;;;;;5048706;28;20529;-40
2022/04/10 01:14:39;;;;;;;5.50;4.30;;;4.90;99.90;;;;;;5052302;28;20420;-34
2022/04/10 01:17:11;;;;;;;7.20;4.70;;;4.80;99.90;;;;;;5066630;28;20429;-37
2022/04/10 01:19:41;;;;;;;6.97;4.40;;;4.60;99.90;;;;;;5049141;28;20448;-39
2022/04/10 01:22:08;;;;;;;9.07;4.60;;;4.60;99.90;;;;;;5050549;28;20416;-38
2022/04/10 01:24:38;;;;;;;6.00;4.47;;;4.90;99.90;;;;;;5053357;28;21111;-38
2022/04/10 01:27:05;;;;;;;5.40;4.57;;;4.70;99.90;;;;;;5049277;28;20424;-36
2022/04/10 01:29:32;;;;;;;7.77;5.13;;;4.90;99.90;;;;;;5054836;28;20439;-39
2022/04/10 01:31:58;;;;;;;8.40;4.73;;;4.60;99.90;;;;;;5063188;28;20906;-37
2022/04/10 01:34:23;;;;;;;7.03;4.77;;;5.00;99.90;;;;;;5049332;28;20428;-39
2022/04/10 01:36:50;;;;;;;5.00;4.50;;;4.70;99.90;;;;;;5061340;28;20431;-38
2022/04/10 01:39:16;;;;;;;5.90;4.30;;;5.00;99.90;;;;;;5060975;28;20463;-33
2022/04/10 01:41:42;;;;;;;8.27;4.00;;;4.70;99.90;;;;;;5070204;28;20437;-39
2022/04/10 01:44:09;;;;;;;11.23;4.40;;;4.90;99.90;;;;;;5055685;28;20428;-36
2022/04/10 01:46:36;;;;;;;8.60;4.40;;;4.80;99.90;;;;;;5058371;28;20503;-38
2022/04/10 01:49:03;;;;;;;9.13;4.50;;;4.70;99.90;;;;;;5048941;28;20960;-37
2022/04/10 01:51:29;;;;;;;7.70;5.00;;;4.90;99.90;;;;;;5057097;28;20463;-37
2022/04/10 01:53:55;;;;;;;5.00;4.50;;;4.90;99.90;;;;;;5060689;28;20462;-36
2022/04/10 01:56:22;;;;;;;5.37;4.27;;;5.00;99.90;;;;;;5083839;28;20268;-37
2022/04/10 01:58:50;;;;;;;7.60;5.00;;;4.60;99.90;;;;;;5060513;28;20508;-40
2022/04/10 02:01:16;;;;;;;8.83;5.00;;;4.80;99.90;;;;;;5069994;28;20546;-38
2022/04/10 02:03:43;;;;;;;5.43;4.00;;;4.90;99.90;;;;;;5048031;28;20459;-38
2022/04/10 02:06:11;;;;;;;7.83;5.30;;;4.80;99.90;;;;;;5052782;28;20429;-39
2022/04/10 02:08:37;;;;;;;7.47;4.53;;;4.70;99.90;;;;;;5048625;28;20428;-38
2022/04/10 02:11:15;;;;;;;8.47;4.30;;;4.60;99.90;;;;;;5048207;28;20432;-39
2022/04/10 02:13:42;;;;;;;10.23;4.50;;;4.80;99.90;;;;;;5058016;28;20976;-39
2022/04/10 02:16:11;;;;;;;7.43;4.53;;;4.60;99.90;;;;;;5077166;28;20852;-39
2022/04/10 02:18:37;;;;;;;8.03;5.10;;;4.70;99.90;;;;;;5048360;28;20467;-41
2022/04/10 02:21:03;;;;;;;11.00;4.87;;;4.70;99.90;;;;;;5053255;28;20800;-41
2022/04/10 02:23:29;;;;;;;8.17;4.53;;;4.80;99.90;;;;;;5062878;28;20186;-41
2022/04/10 02:25:55;;;;;;;8.60;4.30;;;4.70;99.90;;;;;;5065037;28;20485;-40
2022/04/10 02:28:21;;;;;;;12.43;5.03;;;4.60;99.90;;;;;;5052583;28;20192;-39
2022/04/10 02:30:46;;;;;;;11.10;4.60;;;4.70;99.90;;;;;;5075168;28;20199;-39
2022/04/10 02:33:12;;;;;;;10.63;4.90;;;4.70;99.90;;;;;;5061216;28;20911;-40
2022/04/10 02:35:37;;;;;;;6.80;4.70;;;4.70;99.90;;;;;;5052682;28;20544;-40
2022/04/10 02:38:03;;;;;;;7.60;5.20;;;4.40;99.90;;;;;;5060492;28;20218;-41
2022/04/10 02:40:29;;;;;;;8.10;4.97;;;4.50;99.90;;;;;;5051999;28;20185;-41
2022/04/10 02:42:55;;;;;;;10.13;4.63;;;4.50;99.90;;;;;;5053126;28;20435;-37
2022/04/10 02:45:20;;;;;;;11.30;5.50;;;4.50;99.90;;;;;;5060723;28;20213;-37
2022/04/10 02:47:46;;;;;;;5.50;4.73;;;4.50;99.90;;;;;;5076413;28;20258;-38
2022/04/10 02:50:13;;;;;;;5.07;4.23;;;4.60;99.90;;;;;;5052902;28;20194;-38
2022/04/10 02:52:40;;;;;;;7.57;4.37;;;4.60;99.90;;;;;;5055336;28;20207;-41
2022/04/10 02:55:07;;;;;;;7.40;5.00;;;4.70;99.90;;;;;;5052031;28;20954;-36
2022/04/10 02:57:34;;;;;;;9.20;5.17;;;4.40;99.90;;;;;;5051519;28;20586;-37
2022/04/10 02:59:59;;;;;;;8.77;4.87;;;4.70;99.90;;;;;;5079714;28;20517;-38
2022/04/10 03:02:25;;;;;;;8.00;4.70;;;4.60;99.90;;;;;;5063412;28;20953;-38
2022/04/10 03:04:51;;;;;;;6.87;5.10;;;4.40;99.90;;;;;;5051198;28;20509;-33
2022/04/10 03:07:16;;;;;;;8.40;4.97;;;4.50;99.90;;;;;;5052303;28;20198;-38
2022/04/10 03:09:42;;;;;;;10.33;5.00;;;4.40;99.90;;;;;;5073802;28;20220;-40
2022/04/10 03:12:08;;;;;;;5.30;4.60;;;4.60;99.90;;;;;;5065935;28;20629;-37
2022/04/10 03:14:35;;;;;;;8.67;4.40;;;4.40;99.90;;;;;;5056451;28;20193;-35
2022/04/10 03:17:00;;;;;;;11.40;5.00;;;4.50;99.90;;;;;;5082939;28;20436;-38
2022/04/10 03:19:26;;;;;;;7.00;4.80;;;4.50;99.90;;;;;;5051804;28;20436;-33
2022/04/10 03:21:52;;;;;;;9.10;5.30;;;4.30;99.90;;;;;;5059689;28;20196;-39
2022/04/10 03:24:18;;;;;;;8.17;5.10;;;4.60;99.90;;;;;;5056218;28;20527;-41
2022/04/10 03:26:43;;;;;;;7.37;5.50;;;4.40;99.90;;;;;;5051699;28;20189;-38
2022/04/10 03:29:09;;;;;;;8.70;4.57;;;4.50;99.90;;;;;;5061578;28;20192;-39
2022/04/10 03:31:35;;;;;;;7.87;4.80;;;4.50;99.90;;;;;;5074417;28;20196;-39
2022/04/10 03:34:01;;;;;;;7.93;4.83;;;4.20;99.90;;;;;;5065222;28;20421;-37
2022/04/10 03:36:26;;;;;;;11.17;5.07;;;4.20;99.90;;;;;;5055527;28;20201;-39
2022/04/10 03:38:52;;;;;;;11.53;5.10;;;4.40;99.90;;;;;;5067229;28;20221;-35
2022/04/10 03:41:17;;;;;;;7.70;5.07;;;4.50;99.90;;;;;;5064008;28;20559;-39
2022/04/10 03:43:43;;;;;;;8.63;5.40;;;4.40;99.90;;;;;;5053697;28;20193;-40
2022/04/10 03:46:09;;;;;;;5.30;4.80;;;4.40;99.90;;;;;;5069571;28;20181;-40
2022/04/10 03:48:34;;;;;;;8.00;5.50;;;4.20;99.90;;;;;;5056720;28;20190;-37
2022/04/10 03:51:00;;;;;;;9.57;5.73;;;4.20;99.90;;;;;;5050708;28;20638;-40
2022/04/10 03:53:26;;;;;;;7.80;5.40;;;4.40;99.90;;;;;;5055309;28;20201;-35
2022/04/10 03:55:51;;;;;;;7.30;5.57;;;4.40;99.90;;;;;;5086425;28;20219;-39
2022/04/10 03:58:17;;;;;;;11.10;5.33;;;4.40;99.90;;;;;;5052330;28;20213;-37
2022/04/10 04:00:44;;;;;;;9.13;5.30;;;4.30;99.90;;;;;;5059247;28;20196;-36
2022/04/10 04:03:10;;;;;;;8.17;5.90;;;4.30;99.90;;;;;;5059094;28;20185;-38
2022/04/10 04:05:35;;;;;;;6.03;5.13;;;4.20;99.90;;;;;;5050190;28;20416;-39
2022/04/10 04:08:01;;;;;;;5.30;4.80;;;4.20;99.90;;;;;;5059021;28;20687;-41
2022/04/10 04:10:27;;;;;;;6.70;5.23;;;4.20;99.90;;;;;;5050303;28;20197;-36
2022/04/10 04:12:53;;;;;;;8.10;5.80;;;4.50;99.90;;;;;;5050165;28;20190;-38
2022/04/10 04:15:18;;;;;;;8.33;5.27;;;4.30;99.90;;;;;;5057656;28;20420;-38
2022/04/10 04:17:44;;;;;;;13.20;5.43;;;4.30;99.90;;;;;;5066604;28;20555;-38
2022/04/10 04:20:10;;;;;;;7.50;5.50;;;4.40;99.90;;;;;;5049798;28;20216;-35
2022/04/10 04:22:36;;;;;;;11.87;7.00;;;4.50;99.90;;;;;;5056388;28;20191;-38
2022/04/10 04:25:03;;;;;;;8.13;5.90;;;4.60;99.90;;;;;;5068851;28;20181;-39
2022/04/10 04:27:29;;;;;;;8.80;5.87;;;4.20;99.90;;;;;;5072286;28;20451;-39
2022/04/10 04:29:55;;;;;;;8.67;5.90;;;4.20;99.90;;;;;;5063073;28;20875;-37
2022/04/10 04:32:20;;;;;;;10.13;5.17;;;4.20;99.90;;;;;;5071326;28;20545;-40
2022/04/10 04:34:49;;;;;;;8.13;5.47;;;4.40;99.90;;;;;;5050169;28;20197;-36
2022/04/10 04:37:15;;;;;;;8.00;5.70;;;4.40;99.90;;;;;;5051192;28;20652;-37
2022/04/10 04:39:40;;;;;;;13.23;6.17;;;4.20;99.90;;;;;;5048085;28;20424;-38
2022/04/10 04:42:07;;;;;;;9.37;5.47;;;4.20;99.90;;;;;;5050178;28;20296;-40
2022/04/10 04:44:32;;;;;;;9.90;5.97;;;4.40;99.90;;;;;;5049720;28;20265;-37
2022/04/10 04:46:58;;;;;;;9.00;5.80;;;4.20;99.90;;;;;;5074688;28;20576;-37
2022/04/10 04:49:27;;;;;;;6.90;5.17;;;4.20;99.90;;;;;;5055560;28;20185;-41
2022/04/10 04:51:52;;;;;;;10.37;5.67;;;4.30;99.90;;;;;;5051453;28;20277;-40
2022/04/10 04:54:18;;;;;;;13.10;6.03;;;4.30;99.90;;;;;;5067231;28;20447;-35
2022/04/10 04:56:44;;;;;;;10.10;5.70;;;4.30;99.90;;;;;;5052066;28;20447;-35
2022/04/10 04:59:10;;;;;;;9.40;6.13;;;4.20;99.90;;;;;;5054123;28;20471;-41
2022/04/10 05:01:36;;;;;;;9.57;6.00;;;4.20;99.90;;;;;;5068313;28;20186;-37
2022/04/10 05:04:02;;;;;;;10.37;6.40;;;4.10;99.90;;;;;;5062312;28;20742;-40
2022/04/10 05:06:27;;;;;;;10.30;5.70;;;4.10;99.90;;;;;;5049558;28;20652;-38
2022/04/10 05:08:53;;;;;;;9.40;6.50;;;4.10;99.90;;;;;;5071672;28;20193;-38
2022/04/10 05:11:19;;;;;;;14.63;6.20;;;4.10;99.90;;;;;;5068881;28;20190;-37
2022/04/10 05:13:45;;;;;;;9.40;6.00;;;4.10;99.90;;;;;;5052200;28;20420;-35
2022/04/10 05:16:10;;;;;;;10.13;5.80;;;4.20;99.90;;;;;;5076259;28;20199;-37
2022/04/10 05:18:36;;;;;;;10.50;6.73;;;4.40;99.90;;;;;;5060204;28;20250;-39
2022/04/10 05:21:03;;;;;;;10.67;6.37;;;4.40;99.90;;;;;;5048760;28;20502;-39
2022/04/10 05:23:29;;;;;;;9.77;6.47;;;4.30;99.90;;;;;;5054420;28;20497;-36
2022/04/10 05:25:55;;;;;;;11.37;5.70;;;4.20;99.90;;;;;;5050753;28;20427;-40
2022/04/10 05:28:22;;;;;;;11.27;5.63;;;4.30;99.90;;;;;;5049074;28;20420;-33
2022/04/10 05:30:47;;;;;;;7.43;5.47;;;4.50;99.90;;;;;;5064036;28;20436;-39
2022/04/10 05:33:13;;;;;;;8.10;5.40;;;4.40;99.90;;;;;;5045290;28;20439;-35
2022/04/10 05:35:39;;;;;;;7.03;5.83;;;4.40;99.90;;;;;;5049405;28;20431;-38
2022/04/10 05:38:05;;;;;;;6.93;5.23;;;4.50;99.90;;;;;;5059185;28;20572;-39
2022/04/10 05:40:31;;;;;;;11.10;5.60;;;4.80;99.90;;;;;;5050155;28;20429;-37
2022/04/10 05:42:57;;;;;;;9.27;6.27;;;4.90;99.90;;;;;;5084351;28;20407;-40
2022/04/10 05:45:23;;;;;;;11.67;6.67;;;4.90;99.90;;;;;;5053392;28;20558;-39
2022/04/10 05:47:49;;;;;;;12.10;5.73;;;4.70;99.90;;;;;;5059130;28;20530;-39
2022/04/10 05:50:15;;;;;;;9.27;5.90;;;5.10;99.90;;;;;;5064906;28;20683;-37
2022/04/10 05:52:46;;;;;;;7.50;5.63;;;5.10;99.90;;;;;;5054958;28;20267;-40
2022/04/10 05:55:15;;;;;;;8.83;5.70;;;5.30;99.90;;;;;;5060661;28;20438;-38
2022/04/10 05:57:41;;;;;;;10.57;5.83;;;5.30;99.90;;;;;;5076694;28;20450;-36
2022/04/10 06:00:13;;;;;;;9.70;5.73;;;5.30;99.90;;;;;;5049562;28;20558;-37
2022/04/10 06:02:39;;;;;;;10.00;6.10;;;5.40;99.90;;;;;;5068380;28;20425;-41
2022/04/10 06:05:06;;;;;;;12.47;6.67;;;5.70;99.90;;;;;;5059614;28;20424;-38
2022/04/10 06:07:32;;;;;;;9.60;5.70;;;5.70;99.90;;;;;;5052092;28;20422;-39
2022/04/10 06:09:58;;;;;;;8.03;6.00;;;5.90;99.90;;;;;;5047973;28;20424;-34
2022/04/10 06:12:25;;;;;;;8.57;5.37;;;6.10;99.90;;;;;;5048918;28;20456;-37
2022/04/10 06:14:50;;;;;;;6.93;5.77;;;6.20;99.90;;;;;;5050363;28;20436;-40
2022/04/10 06:17:16;;;;;;;7.43;5.73;;;6.30;99.90;;;;;;5061228;28;20464;-39
2022/04/10 06:19:42;;;;;;;9.20;6.40;;;6.40;99.90;;;;;;5051027;28;20186;-36
2022/04/10 06:22:08;;;;;;;11.43;6.80;;;6.40;99.90;;;;;;5048854;28;20193;-35
2022/04/10 06:24:35;;;;;;;17.33;7.57;;;6.80;99.90;;;;;;5057097;28;20190;-39
2022/04/10 06:27:01;;;;;;;10.97;6.83;;;6.60;99.90;;;;;;5080836;28;20411;-37
2022/04/10 06:29:26;;;;;;;10.20;6.17;;;6.50;99.90;;;;;;5047760;28;20443;-38
2022/04/10 06:31:52;;;;;;;9.07;6.20;;;7.10;99.90;;;;;;5060685;28;20439;-40
2022/04/10 06:34:18;;;;;;;11.30;6.17;;;7.20;99.90;;;;;;5056482;28;20189;-39
2022/04/10 06:36:43;;;;;;;10.07;7.00;;;7.30;99.90;;;;;;5048771;28;20194;-39
2022/04/10 06:39:09;;;;;;;8.93;5.53;;;7.50;99.90;;;;;;5055452;28;20229;-41
2022/04/10 06:41:35;;;;;;;8.67;5.93;;;7.40;99.90;;;;;;5047965;28;20262;-41
2022/04/10 06:44:02;;;;;;;7.47;5.93;;;7.60;99.90;;;;;;5048366;28;20189;-40
2022/04/10 06:46:27;;;;;;;8.53;6.20;;;7.60;99.90;;;;;;5063202;28;20778;-40
2022/04/10 06:48:54;;;;;;;11.27;6.37;;;7.70;99.90;;;;;;5068330;28;20477;-39
2022/04/10 06:51:21;;;;;;;11.00;5.90;;;7.90;99.90;;;;;;5047622;28;20661;-35
2022/04/10 06:53:47;;;;;;;9.70;6.50;;;8.30;99.90;;;;;;5051744;28;20454;-39
2022/04/10 06:56:13;;;;;;;11.40;6.40;;;8.20;99.90;;;;;;5057548;28;20446;-40
2022/04/10 06:58:39;;;;;;;7.90;5.50;;;8.10;99.90;;;;;;5066257;28;20532;-40
2022/04/10 07:01:04;;;;;;;9.10;5.80;;;8.20;99.90;;;;;;5062128;28;20184;-37
2022/04/10 07:03:30;;;;;;;11.27;6.53;;;8.40;99.90;;;;;;5068258;28;20178;-41
2022/04/10 07:05:56;;;;;;;9.13;5.57;;;8.60;99.90;;;;;;5048272;28;20182;-35
2022/04/10 07:08:21;;;;;;;9.50;5.73;;;8.50;99.90;;;;;;5062324;28;20430;-34
2022/04/10 07:10:47;;;;;;;6.97;5.33;;;8.40;99.90;;;;;;5078602;28;20193;-37
2022/04/10 07:13:20;;;;;;;8.67;5.53;;;8.80;99.90;;;;;;5052189;28;20197;-39
2022/04/10 07:15:47;;;;;;;8.13;5.30;;;8.70;99.90;;;;;;5059109;28;20248;-38
2022/04/10 07:18:13;;;;;;;9.60;5.40;;;8.80;99.90;;;;;;5078533;28;20450;-37
2022/04/10 07:20:40;;;;;;;8.30;4.90;;;8.80;99.90;;;;;;5050771;28;20427;-39
2022/04/10 07:25:50;;;;;;;10.10;5.47;;;8.70;99.90;;;;;;5051611;28;20424;-38
2022/04/10 07:28:16;;;;;;;7.27;5.20;;;8.80;99.90;;;;;;5051623;28;20443;-35
2022/04/10 07:30:42;;;;;;;12.93;6.43;;;8.80;99.90;;;;;;5060596;28;20189;-39
2022/04/10 07:33:08;;;;;;;7.77;6.20;;;8.50;99.90;;;;;;5072951;28;20418;-39
2022/04/10 07:35:37;;;;;;;8.53;5.87;;;8.60;99.90;;;;;;5071970;28;20977;-35
2022/04/10 07:38:03;;;;;;;10.57;5.93;;;8.50;99.90;;;;;;5059399;28;20474;-35
2022/04/10 07:40:29;;;;;;;9.40;5.90;;;8.50;99.90;;;;;;5069912;28;20428;-39
2022/04/10 07:42:57;;;;;;;12.63;6.00;;;8.50;99.90;;;;;;5066956;28;20209;-38
2022/04/10 07:48:07;;;;;;;7.23;5.40;;;8.50;99.90;;;;;;5070927;28;20423;-39
2022/04/10 07:50:33;;;;;;;10.47;5.77;;;8.50;99.90;;;;;;5050585;28;20424;-40
2022/04/10 07:52:58;;;;;;;9.63;5.60;;;8.60;99.90;;;;;;5052600;28;20681;-37
2022/04/10 07:55:25;;;;;;;10.10;5.30;;;8.60;99.90;;;;;;5080451;28;20228;-39
2022/04/10 07:57:51;;;;;;;5.70;4.63;;;8.60;99.90;;;;;;5067384;28;20225;-40
2022/04/10 08:00:17;;;;;;;8.83;5.30;;;8.60;99.90;;;;;;5060838;28;20958;-39
2022/04/10 08:02:48;;;;;;;8.13;5.57;;;8.60;99.90;;;;;;5063065;28;20514;-39
2022/04/10 08:05:14;;;;;;;7.00;4.80;;;8.80;99.90;;;;;;5056448;28;21250;-37
2022/04/10 08:07:41;;;;;;;8.83;6.10;;;8.80;99.90;;;;;;5051100;28;20919;-36
2022/04/10 08:10:08;;;;;;;8.40;4.07;;;8.90;99.90;;;;;;5063382;28;20424;-40
2022/04/10 08:12:33;;;;;;;6.83;3.73;;;8.90;99.90;;;;;;5058090;28;20943;-41
2022/04/10 08:14:59;;;;;;;6.77;4.40;;;8.90;99.90;;;;;;5067380;28;20415;-35
2022/04/10 08:17:25;;;;;;;8.87;3.30;;;8.70;99.90;;;;;;5058879;28;20190;-40
2022/04/10 08:19:50;;;;;;;5.93;3.17;;;8.60;99.90;;;;;;5061417;28;20174;-37
2022/04/10 08:22:23;;;;;;;6.00;3.27;;;8.80;99.90;;;;;;5052820;28;20200;-38
2022/04/10 08:24:49;;;;;;;5.80;3.60;;;8.90;99.90;;;;;;5056260;28;20176;-40
2022/04/10 08:27:14;;;;;;;7.37;4.47;;;8.90;99.90;;;;;;5050524;28;20460;-36
2022/04/10 08:29:40;;;;;;;5.80;3.80;;;8.70;99.90;;;;;;5067313;28;20765;-37
2022/04/10 08:32:06;;;;;;;7.50;3.90;;;8.80;99.90;;;;;;5060744;28;20200;-37
2022/04/10 08:34:31;;;;;;;12.17;4.10;;;8.70;99.90;;;;;;5069470;28;20190;-41
2022/04/10 08:37:03;;;;;;;5.70;3.90;;;8.80;99.90;;;;;;5066947;28;20427;-37
2022/04/10 08:39:28;;;;;;;7.83;3.77;;;8.80;99.90;;;;;;5069027;28;20213;-38
2022/04/10 08:42:00;;;;;;;5.67;3.93;;;8.90;99.90;;;;;;5073553;28;20532;-40
2022/04/10 08:44:27;;;;;;;7.67;3.80;;;9.00;99.90;;;;;;5061854;28;20201;-37
2022/04/10 08:46:52;;;;;;;9.10;3.70;;;9.20;99.90;;;;;;5061483;28;20432;-40
2022/04/10 08:49:20;;;;;;;6.03;3.10;;;9.10;99.90;;;;;;5062371;28;20459;-40
2022/04/10 08:51:46;;;;;;;7.30;3.17;;;9.10;99.90;;;;;;5064262;28;20196;-34
2022/04/10 08:54:13;;;;;;;7.30;3.70;;;9.10;99.90;;;;;;5057866;28;20427;-35
2022/04/10 08:56:39;;;;;;;8.43;3.47;;;9.20;99.90;;;;;;5050742;28;21008;-37
2022/04/10 08:59:05;;;;;;;5.57;3.20;;;9.00;99.90;;;;;;5049279;28;20464;-37
2022/04/10 09:01:30;;;;;;;4.97;2.90;;;9.20;99.90;;;;;;5052398;28;20675;-40
2022/04/10 09:03:56;;;;;;;5.73;3.33;;;9.10;99.90;;;;;;5075250;28;20201;-39
2022/04/10 09:06:22;;;;;;;5.50;2.80;;;9.30;99.90;;;;;;5056264;28;20185;-41
2022/04/10 09:08:47;;;;;;;6.40;3.70;;;9.30;99.90;;;;;;5080310;28;20182;-38
2022/04/10 09:11:13;;;;;;;5.90;3.00;;;9.20;99.90;;;;;;5069888;28;20375;-38
2022/04/10 09:13:46;;;;;;;4.27;2.97;;;9.30;99.90;;;;;;5048799;28;20243;-40
2022/04/10 09:16:12;;;;;;;3.17;1.90;;;9.30;99.80;;;;;;5054870;28;20495;-41
2022/04/10 09:18:45;;;;;;;2.80;2.20;;;9.40;98.90;;;;;;5073718;28;20462;-38
2022/04/10 09:21:11;;;;;;;3.93;2.10;;;9.30;98.80;;;;;;5048028;28;20196;-39
2022/04/10 09:23:36;;;;;;;4.10;2.53;;;9.30;98.50;;;;;;5052732;28;20938;-35
2022/04/10 09:26:02;;;;;;;3.30;2.23;;;9.30;97.90;;;;;;5056805;28;20177;-41
2022/04/10 09:28:41;;;;;;;5.03;2.50;;;9.20;98.20;;;;;;5056715;28;20192;-35
2022/04/10 09:31:26;;;;;;;3.23;2.50;;;9.20;98.00;;;;;;5061893;28;20737;-40
2022/04/10 09:33:53;;;;;;;10.60;2.77;;;9.00;98.60;;;;;;5070182;28;20750;-40
2022/04/10 09:36:36;;;;;;;4.23;2.73;;;9.00;98.70;;;;;;5059048;28;20423;-39
2022/04/10 09:39:06;;;;;;;4.30;2.90;;;8.90;98.80;;;;;;5056131;28;20459;-37
2022/04/10 09:41:32;;;;;;;4.67;2.60;;;8.70;99.50;;;;;;5056600;28;20799;-37
2022/04/10 09:44:20;;;;;;;3.83;2.77;;;8.80;99.70;;;;;;5057182;28;20498;-37
2022/04/10 09:47:05;;;;;;;4.60;2.60;;;8.70;99.90;;;;;;5062559;28;20428;-38
2022/04/10 09:49:34;;;;;;;5.40;2.63;;;8.50;99.90;;;;;;5065877;28;20434;-39
2022/04/10 09:52:20;;;;;;;5.37;3.43;;;8.60;99.90;;;;;;5058593;28;20407;-35
2022/04/10 09:54:47;;;;;;;5.00;2.97;;;8.70;99.90;;;;;;5051812;28;20776;-38
2022/04/10 09:57:14;;;;;;;3.97;2.87;;;8.70;99.90;;;;;;5062806;28;20867;-36
2022/04/10 09:59:48;;;;;;;3.83;3.43;;;8.70;99.90;;;;;;5062571;28;20949;-35
2022/04/10 10:02:18;;;;;;;6.43;3.57;;;9.00;99.90;;;;;;5070609;28;20461;-39
2022/04/10 10:04:46;;;;;;;5.93;3.60;;;9.10;99.90;;;;;;5068199;28;20919;-36
2022/04/10 10:07:15;;;;;;;6.50;3.33;;;9.20;99.90;;;;;;5046893;28;20527;-39
2022/04/10 10:09:42;;;;;;;4.03;2.87;;;9.60;99.90;;;;;;5049185;28;20431;-37
2022/04/10 10:12:08;;;;;;;6.43;3.73;;;9.90;99.90;;;;;;5053753;28;20485;-38
2022/04/10 10:14:35;;;;;;;5.10;2.70;;;10.30;99.90;;;;;;5054589;28;20461;-37
2022/04/10 10:17:03;;;;;;;4.87;3.50;;;10.50;99.90;;;;;;5061984;28;20443;-40
2022/04/10 10:19:34;;;;;;;4.83;2.40;;;10.90;99.80;;;;;;5059204;28;20939;-40
2022/04/10 10:22:00;;;;;;;2.90;2.10;;;11.10;99.50;;;;;;5052907;28;20478;-36
2022/04/10 10:24:30;;;;;;;4.07;2.57;;;11.10;98.20;;;;;;5052386;28;20412;-37
2022/04/10 10:27:04;;;;;;;4.23;2.80;;;11.30;96.90;;;;;;5047795;28;20419;-39
2022/04/10 10:29:43;;;;;;;6.87;2.80;;;11.10;95.70;;;;;;5047976;28;20415;-38
2022/04/10 10:32:29;;;;;;;4.30;2.10;;;11.30;97.00;;;;;;5050367;28;20435;-37
2022/04/10 10:34:55;;;;;;;3.60;1.70;;;11.20;96.30;;;;;;5067548;28;20859;-38
2022/04/10 10:37:31;;;;;;;2.30;1.90;;;11.10;96.00;;;;;;5057196;28;20489;-39
2022/04/10 10:39:58;;;;;;;3.10;1.80;;;10.90;95.10;;;;;;5058129;28;20435;-38
2022/04/10 10:42:24;;;;;;;2.80;1.70;;;10.70;94.40;;;;;;5048334;28;20460;-37
2022/04/10 10:44:51;;;;;;;2.23;1.30;;;10.80;94.40;;;;;;5049299;28;20459;-40
2022/04/10 10:47:22;;;;;;;3.60;1.57;;;10.60;94.10;;;;;;5052439;28;20204;-37
2022/04/10 10:49:51;;;;;;;4.43;1.60;;;10.40;93.40;;;;;;5061005;28;20432;-41
2022/04/10 10:52:18;;;;;;;1.30;1.20;;;10.50;93.70;;;;;;5072981;28;21122;-38
2022/04/10 10:55:13;;;;;;;4.53;1.30;;;10.80;93.70;;;;;;5062688;28;20427;-39
2022/04/10 10:57:41;;;;;;;6.07;2.00;;;11.00;93.80;;;;;;5051433;28;20471;-41
2022/04/10 11:00:12;;;;;;;2.47;1.40;;;11.50;94.30;;;;;;5050923;28;20425;-40
2022/04/10 11:02:38;;;;;;;3.60;1.60;;;11.60;93.10;;;;;;5059212;28;20493;-40
2022/04/10 11:05:26;;;;;;;1.83;1.40;;;11.50;92.50;;;;;;5056597;28;20959;-40
2022/04/10 11:07:58;;;;;;;1.80;1.10;;;11.50;91.50;;;;;;5072973;28;20432;-40
2022/04/10 11:10:28;;;;;;;5.17;1.40;;;11.50;92.10;;;;;;5062122;28;20989;-38
2022/04/10 11:12:58;;;;;;;1.10;1.00;;;11.40;91.60;;;;;;5051323;28;20515;-41
2022/04/10 11:15:30;;;;;;;1.60;1.50;;;11.10;91.00;;;;;;5051316;28;20483;-38
2022/04/10 11:18:01;;;;;;;5.33;1.90;;;11.20;91.50;;;;;;5066533;28;20481;-40
2022/04/10 11:20:27;;;;;;;1.60;1.40;;;11.00;91.70;;;;;;5058857;28;20935;-34
2022/04/10 11:22:53;;;;;;;2.83;1.67;;;10.80;92.10;;;;;;5091110;28;20415;-36
2022/04/10 11:25:48;;;;;;;1.77;1.30;;;10.70;92.90;;;;;;5058532;28;21107;-36
2022/04/10 11:28:13;;;;;;;2.30;1.10;;;10.70;93.20;;;;;;5050936;28;20565;-38
2022/04/10 11:30:41;;;;;;;2.00;1.37;;;10.50;92.30;;;;;;5064997;28;20423;-39
2022/04/10 11:33:09;;;;;;;1.93;1.07;;;10.50;92.30;;;;;;5062764;28;20586;-40
2022/04/10 11:35:37;;;;;;;3.17;1.30;;;10.60;92.60;;;;;;5065646;28;20428;-40
2022/04/10 11:38:06;;;;;;;2.00;1.13;;;10.70;93.20;;;;;;5060594;28;20448;-40
2022/04/10 11:40:38;;;;;;;1.73;1.30;;;11.10;93.30;;;;;;5060748;28;20919;-38
2022/04/10 11:43:07;;;;;;;4.03;1.50;;;11.00;92.10;;;;;;5061291;28;20424;-36
2022/04/10 11:45:34;;;;;;;2.33;1.17;;;11.00;92.00;;;;;;5054987;28;20424;-40
2022/04/10 11:48:01;;;;;;;4.20;1.23;;;10.80;91.50;;;;;;5061576;28;20439;-37
2022/04/10 11:50:28;;;;;;;4.63;1.60;;;11.10;92.00;;;;;;5060505;28;20791;-41
2022/04/10 11:53:03;;;;;;;1.90;1.20;;;11.30;93.40;;;;;;5056703;28;20424;-41
2022/04/10 11:55:34;;;;;;;3.00;1.20;;;11.40;92.20;;;;;;5057495;28;21010;-40
2022/04/10 11:58:15;;;;;;;1.67;0.97;;;11.70;92.20;;;;;;5056391;28;20557;-39
2022/04/10 12:00:51;;;;;;;2.17;0.93;;;11.80;90.70;;;;;;5065408;28;20447;-40
2022/04/10 12:03:21;;;;;;;2.27;1.40;;;12.00;88.30;;;;;;5060381;28;20435;-40
2022/04/10 12:05:48;;;;;;;3.77;1.53;;;12.20;90.90;;;;;;5069531;28;20423;-39
2022/04/10 12:08:14;;;;;;;2.00;1.17;;;12.30;90.60;;;;;;5050025;28;20440;-39
2022/04/10 12:10:40;;;;;;;2.70;1.60;;;12.50;89.50;;;;;;5057579;28;20435;-39
2022/04/10 12:13:10;;;;;;;3.37;1.00;;;12.50;86.30;;;;;;5050257;28;20436;-36
2022/04/10 12:15:36;;;;;;;3.17;1.37;;;12.40;86.50;;;;;;5050895;28;20420;-40
2022/04/10 12:18:09;;;;;;;2.07;1.20;;;12.30;86.10;;;;;;5070295;28;20466;-39
2022/04/10 12:20:41;;;;;;;2.00;1.13;;;12.10;84.60;;;;;;5068711;28;20188;-39
2022/04/10 12:23:20;;;;;;;2.83;1.30;;;12.00;85.60;;;;;;5060316;28;20989;-40
2022/04/10 12:25:50;;;;;;;3.10;1.30;;;11.70;85.80;;;;;;5053276;28;20423;-39
2022/04/10 12:28:17;;;;;;;1.53;1.07;;;11.70;86.90;;;;;;5049848;28;20420;-41
2022/04/10 12:30:43;;;;;;;3.17;1.20;;;11.70;89.30;;;;;;5049172;28;20424;-40
2022/04/10 12:33:10;;;;;;;2.27;1.13;;;11.50;89.70;;;;;;5065859;28;20434;-39
2022/04/10 12:35:41;;;;;;;2.20;1.07;;;11.40;90.00;;;;;;5071758;28;20416;-37
2022/04/10 12:38:07;;;;;;;1.60;1.00;;;11.50;89.10;;;;;;5047854;28;20545;-34
2022/04/10 12:40:37;;;;;;;2.20;1.10;;;11.40;89.20;;;;;;5054336;28;20899;-40
2022/04/10 12:43:07;;;;;;;2.50;1.00;;;11.30;90.10;;;;;;5054942;28;20443;-36
2022/04/10 12:45:35;;;;;;;1.63;1.00;;;11.20;89.00;;;;;;5055633;28;20436;-34
2022/04/10 12:48:01;;;;;;;3.43;1.20;;;11.30;86.50;;;;;;5052006;28;20438;-41
2022/04/10 12:50:29;;;;;;;3.60;1.00;;;11.20;85.30;;;;;;5063987;28;20929;-38
2022/04/10 12:52:55;;;;;;;1.77;0.80;;;11.20;86.20;;;;;;5057467;28;20963;-38
2022/04/10 12:55:31;;;;;;;1.07;0.97;;;11.30;88.10;;;;;;5060535;28;20422;-39
2022/04/10 12:58:04;;;;;;;3.57;1.53;;;11.40;84.70;;;;;;5058571;28;20517;-38
2022/04/10 13:00:44;;;;;;;1.20;0.97;;;11.40;84.00;;;;;;5059479;28;20948;-41